Astra — PB4187 — position and weather

sailwx.info

Track history (hours):
 
Tides and Currents Weather Stations Pressure Air Temp Water Temp Dewpoint Dewpoint Depression Visibility Wind Speed Wind Dir Waves Ship Positions

Astra

Last reported at 2016-Sep-28 15:05 UTC. Time now 2016-Sep-29 06:43 UTC.
Position N 49°25' E 008°30'.

Length 110 m.

Type: Tanker. MMSI: 244650752.

Date/timePositionNaut miles runAvg speedWind from/ knotsBaromVisibWave heightAir tempDewpointWater temp
2016-Sep-28 15:05N 49°25' E 008°30'7 0.6
2016-Sep-28 03:20N 49°19' E 008°27'0 0.0
2016-Sep-28 02:32N 49°19' E 008°27'0 0.0
2016-Sep-27 23:33N 49°19' E 008°27'108 3.2
2016-Sep-26 13:33N 47°36' E 007°36'3 1.4
2016-Sep-26 11:33N 47°34' E 007°38'1 0.4
2016-Sep-26 08:33N 47°33' E 007°39'0 0.0
2016-Sep-26 02:33N 47°33' E 007°39'0 0.0
2016-Sep-26 01:33N 47°33' E 007°39'0 0.0
2016-Sep-26 00:33N 47°33' E 007°39'0 0.0
2016-Sep-25 21:33N 47°33' E 007°39'0 0.0
2016-Sep-25 17:33N 47°33' E 007°39'0 0.0
2016-Sep-25 16:33N 47°33' E 007°39'0 0.0
2016-Sep-25 15:33N 47°33' E 007°39'0 0.0
2016-Sep-25 14:33N 47°33' E 007°39'1 0.7
2016-Sep-25 12:33N 47°34' E 007°38'2 2.0
2016-Sep-25 11:33N 47°34' E 007°35'87 4.5
2016-Sep-24 16:14N 48°58' E 008°14'7 4.3
2016-Sep-24 14:33N 49°04' E 008°19'1 0.3
2016-Sep-24 12:33N 49°04' E 008°20'0 0.0
2016-Sep-24 10:33N 49°04' E 008°20'0 0.0
2016-Sep-24 09:33N 49°04' E 008°20'0 0.0
2016-Sep-24 03:33N 49°04' E 008°20'0 0.0
2016-Sep-24 02:33N 49°04' E 008°20'0 0.0
2016-Sep-24 01:33N 49°04' E 008°20'0 0.0
2016-Sep-24 00:33N 49°04' E 008°20'0 0.0
2016-Sep-23 19:33N 49°04' E 008°20'93 6.2
2016-Sep-23 04:32N 47°37' E 007°35'4 3.8
2016-Sep-23 03:33N 47°34' E 007°38'1 1.3
2016-Sep-23 02:33N 47°33' E 007°39'0 0.0
2016-Sep-23 01:33N 47°33' E 007°39'0 0.0
2016-Sep-23 00:33N 47°33' E 007°39'0 0.0
2016-Sep-22 23:33N 47°33' E 007°39'0 0.0
2016-Sep-22 20:33N 47°33' E 007°39'0 0.0
2016-Sep-22 12:33N 47°33' E 007°39'2 0.2
2016-Sep-22 04:33N 47°34' E 007°37'2 1.3
2016-Sep-22 03:17N 47°34' E 007°35'3 1.2
2016-Sep-22 00:33N 47°37' E 007°34'84 3.9
2016-Sep-21 03:20N 48°57' E 008°11'3 3.4
2016-Sep-21 02:33N 48°59' E 008°15'7 0.7
2016-Sep-20 17:33N 49°04' E 008°20'0 0.0
2016-Sep-20 14:33N 49°04' E 008°20'0 0.0
2016-Sep-20 13:33N 49°04' E 008°20'0 0.0
2016-Sep-20 10:33N 49°04' E 008°20'0 0.0
2016-Sep-20 08:33N 49°04' E 008°20'0 0.0
2016-Sep-20 07:33N 49°04' E 008°20'0 0.0
2016-Sep-20 06:33N 49°04' E 008°20'0 0.0
2016-Sep-20 02:33N 49°04' E 008°20'0 0.0
2016-Sep-19 23:33N 49°04' E 008°20'0 0.0
2016-Sep-19 19:27N 49°04' E 008°20'2 2.7
2016-Sep-19 18:33N 49°07' E 008°22'10 4.8
2016-Sep-19 16:32N 49°16' E 008°26'  
Track history (hours):
 
Tides and Currents Weather Stations Pressure Air Temp Water Temp Dewpoint Dewpoint Depression Visibility Wind Speed Wind Dir Waves Ship Positions

Astra

Last reported at 2016-Sep-28 15:05 UTC. Time now 2016-Sep-29 06:43 UTC.
Position N 49°25' E 008°30'.

Length 110 m.

Type: Tanker. MMSI: 244650752.

Date/timePositionNaut miles runAvg speedWind from/ knotsBaromVisibWave heightAir tempDewpointWater temp
2016-Sep-28 15:05N 49°25' E 008°30'7 0.6
2016-Sep-28 03:20N 49°19' E 008°27'0 0.0
2016-Sep-28 02:32N 49°19' E 008°27'0 0.0
2016-Sep-27 23:33N 49°19' E 008°27'108 3.2
2016-Sep-26 13:33N 47°36' E 007°36'3 1.4
2016-Sep-26 11:33N 47°34' E 007°38'1 0.4
2016-Sep-26 08:33N 47°33' E 007°39'0 0.0
2016-Sep-26 02:33N 47°33' E 007°39'0 0.0
2016-Sep-26 01:33N 47°33' E 007°39'0 0.0
2016-Sep-26 00:33N 47°33' E 007°39'0 0.0
2016-Sep-25 21:33N 47°33' E 007°39'0 0.0
2016-Sep-25 17:33N 47°33' E 007°39'0 0.0
2016-Sep-25 16:33N 47°33' E 007°39'0 0.0
2016-Sep-25 15:33N 47°33' E 007°39'0 0.0
2016-Sep-25 14:33N 47°33' E 007°39'1 0.7
2016-Sep-25 12:33N 47°34' E 007°38'2 2.0
2016-Sep-25 11:33N 47°34' E 007°35'87 4.5
2016-Sep-24 16:14N 48°58' E 008°14'7 4.3
2016-Sep-24 14:33N 49°04' E 008°19'1 0.3
2016-Sep-24 12:33N 49°04' E 008°20'0 0.0
2016-Sep-24 10:33N 49°04' E 008°20'0 0.0
2016-Sep-24 09:33N 49°04' E 008°20'0 0.0
2016-Sep-24 03:33N 49°04' E 008°20'0 0.0
2016-Sep-24 02:33N 49°04' E 008°20'0 0.0
2016-Sep-24 01:33N 49°04' E 008°20'0 0.0
2016-Sep-24 00:33N 49°04' E 008°20'0 0.0
2016-Sep-23 19:33N 49°04' E 008°20'93 6.2
2016-Sep-23 04:32N 47°37' E 007°35'4 3.8
2016-Sep-23 03:33N 47°34' E 007°38'1 1.3
2016-Sep-23 02:33N 47°33' E 007°39'0 0.0
2016-Sep-23 01:33N 47°33' E 007°39'0 0.0
2016-Sep-23 00:33N 47°33' E 007°39'0 0.0
2016-Sep-22 23:33N 47°33' E 007°39'0 0.0
2016-Sep-22 20:33N 47°33' E 007°39'0 0.0
2016-Sep-22 12:33N 47°33' E 007°39'2 0.2
2016-Sep-22 04:33N 47°34' E 007°37'2 1.3
2016-Sep-22 03:17N 47°34' E 007°35'3 1.2
2016-Sep-22 00:33N 47°37' E 007°34'84 3.9
2016-Sep-21 03:20N 48°57' E 008°11'3 3.4
2016-Sep-21 02:33N 48°59' E 008°15'7 0.7
2016-Sep-20 17:33N 49°04' E 008°20'0 0.0
2016-Sep-20 14:33N 49°04' E 008°20'0 0.0
2016-Sep-20 13:33N 49°04' E 008°20'0 0.0
2016-Sep-20 10:33N 49°04' E 008°20'0 0.0
2016-Sep-20 08:33N 49°04' E 008°20'0 0.0
2016-Sep-20 07:33N 49°04' E 008°20'0 0.0
2016-Sep-20 06:33N 49°04' E 008°20'0 0.0
2016-Sep-20 02:33N 49°04' E 008°20'0 0.0
2016-Sep-19 23:33N 49°04' E 008°20'0 0.0
2016-Sep-19 19:27N 49°04' E 008°20'2 2.7
2016-Sep-19 18:33N 49°07' E 008°22'10 4.8
2016-Sep-19 16:32N 49°16' E 008°26'  

Dump ship's entire track history